Terminal Aerodrome Forecast
Issued by NWS

Home | Current Version | Previous Version | Graphics & Text | Print | Product List | Glossary On
Versions: 1 2 3 4 5 6 7 8 9 10 11 12 13 14 15 16 17 18 19 20 21 22 23 24 25 26 27 28 29 30 31 32 33 34 35
000
FTUS43 KLOT 031500 AAD
TAFDPA
TAF AMD
KDPA 031552Z 0316/0412 19017G25KT 3SM -FZDZ BR OVC005
     FM031800 20017G25KT 4SM -DZ OVC007
     FM032000 26016G22KT P6SM OVC015
     FM040200 29013G20KT P6SM OVC025=

USA.gov is the U.S. government's official web portal to all federal, state and local government web resources and services.